createdAt,value
2017-06-01T00:01:27.031Z,19.40
2017-06-01T00:03:54.711Z,19.34
2017-06-01T00:06:22.228Z,19.55
2017-06-01T00:08:49.896Z,19.47
2017-06-01T00:11:17.415Z,19.33
2017-06-01T00:13:44.943Z,19.38
2017-06-01T00:16:12.489Z,19.31
2017-06-01T00:18:40.007Z,19.22
2017-06-01T00:21:07.568Z,19.11
2017-06-01T00:23:35.084Z,19.03
2017-06-01T00:26:02.602Z,18.92
2017-06-01T00:28:30.146Z,18.98
2017-06-01T00:30:57.739Z,19.10
2017-06-01T00:33:25.412Z,19.25
2017-06-01T00:35:52.958Z,19.51
2017-06-01T00:38:20.484Z,19.25
2017-06-01T00:40:48.035Z,19.12
2017-06-01T00:43:15.563Z,19.06
2017-06-01T00:45:43.111Z,18.91
2017-06-01T00:48:10.706Z,18.78
2017-06-01T00:50:38.194Z,18.70
2017-06-01T00:53:05.708Z,18.56
2017-06-01T00:55:33.275Z,18.52
2017-06-01T00:58:00.811Z,18.41
2017-06-01T01:00:28.341Z,18.42
2017-06-01T01:02:55.924Z,18.31
2017-06-01T01:05:23.467Z,18.47
2017-06-01T01:07:51.018Z,18.88
2017-06-01T01:10:18.540Z,18.69
2017-06-01T01:12:46.131Z,18.72
2017-06-01T01:15:13.658Z,18.99
2017-06-01T01:17:41.188Z,19.06
2017-06-01T01:20:08.722Z,19.00
2017-06-01T01:22:36.339Z,18.93
2017-06-01T01:25:03.912Z,19.10
2017-06-01T01:27:31.448Z,18.91
2017-06-01T01:29:59.047Z,18.79
2017-06-01T01:32:26.564Z,18.43
2017-06-01T01:34:54.116Z,18.21
2017-06-01T01:37:21.625Z,18.28
2017-06-01T01:39:49.216Z,18.40
2017-06-01T01:42:16.760Z,18.28
2017-06-01T01:44:44.272Z,18.00
2017-06-01T01:47:11.806Z,17.83
2017-06-01T01:49:39.360Z,17.84
2017-06-01T01:52:06.899Z,18.17
2017-06-01T01:54:34.404Z,18.43
2017-06-01T01:57:01.995Z,18.36
2017-06-01T01:59:29.553Z,18.13
2017-06-01T02:01:57.153Z,17.88
2017-06-01T02:04:24.688Z,18.13
2017-06-01T02:06:52.218Z,18.06
2017-06-01T02:09:19.764Z,18.19
2017-06-01T02:11:47.315Z,18.24
2017-06-01T02:14:14.959Z,18.25
2017-06-01T02:16:42.504Z,18.23
2017-06-01T02:19:10.011Z,18.13
2017-06-01T02:21:37.546Z,17.91
2017-06-01T02:24:05.112Z,17.68
2017-06-01T02:26:32.651Z,17.51
2017-06-01T02:29:00.168Z,17.47
2017-06-01T02:31:27.731Z,17.35
2017-06-01T02:33:55.244Z,17.29
2017-06-01T02:36:22.743Z,17.19
2017-06-01T02:38:50.307Z,17.15
2017-06-01T02:41:17.827Z,17.13
2017-06-01T02:43:45.703Z,17.28
2017-06-01T02:46:13.215Z,17.56
2017-06-01T02:48:40.751Z,17.60
2017-06-01T02:51:08.284Z,17.46
2017-06-01T02:53:36.237Z,17.52
2017-06-01T02:56:03.755Z,17.51
2017-06-01T02:58:31.327Z,17.47
2017-06-01T03:00:58.852Z,17.51
2017-06-01T03:03:26.355Z,17.07
2017-06-01T03:05:53.895Z,16.89
2017-06-01T03:08:21.473Z,17.03
2017-06-01T03:10:48.965Z,17.21
2017-06-01T03:13:16.484Z,16.98
2017-06-01T03:15:44.036Z,16.83
2017-06-01T03:18:11.560Z,16.95
2017-06-01T03:20:39.083Z,16.66
2017-06-01T03:23:06.635Z,17.08
2017-06-01T03:25:34.159Z,16.88
2017-06-01T03:28:01.715Z,16.67
2017-06-01T03:30:29.239Z,16.82
2017-06-01T03:32:56.839Z,16.87
2017-06-01T03:35:24.463Z,16.73
2017-06-01T03:37:51.997Z,16.83
2017-06-01T03:40:19.584Z,16.68
2017-06-01T03:42:47.108Z,16.96
2017-06-01T03:45:14.668Z,16.88
2017-06-01T03:47:42.187Z,16.60
2017-06-01T03:50:09.699Z,16.55
2017-06-01T03:52:37.279Z,16.55
2017-06-01T03:55:04.824Z,16.48
2017-06-01T03:57:32.399Z,16.54
2017-06-01T03:59:59.912Z,16.71
2017-06-01T04:02:27.419Z,16.62
2017-06-01T04:04:54.963Z,16.63
2017-06-01T04:07:22.540Z,16.78
2017-06-01T04:09:50.106Z,17.07
2017-06-01T04:12:17.626Z,17.04
2017-06-01T04:14:45.167Z,17.00
2017-06-01T04:17:12.682Z,17.12
2017-06-01T04:19:40.250Z,17.26
2017-06-01T04:22:07.772Z,17.23
2017-06-01T04:24:35.388Z,17.32
2017-06-01T04:27:02.952Z,17.27
2017-06-01T04:29:30.521Z,17.23
2017-06-01T04:31:58.110Z,17.31
2017-06-01T04:34:25.643Z,17.14
2017-06-01T04:36:53.283Z,17.16
2017-06-01T04:39:20.827Z,17.39
2017-06-01T04:41:48.353Z,17.22
2017-06-01T04:44:15.903Z,17.37
2017-06-01T04:46:43.441Z,17.19
2017-06-01T04:49:10.987Z,17.38
2017-06-01T04:51:38.513Z,17.54
2017-06-01T04:54:06.071Z,17.46
2017-06-01T04:56:33.577Z,17.53
2017-06-01T04:59:01.172Z,17.69
2017-06-01T05:01:28.699Z,17.70
2017-06-01T05:03:56.227Z,17.56
2017-06-01T05:06:23.749Z,17.48
2017-06-01T05:08:51.308Z,17.51
2017-06-01T05:11:18.876Z,17.68
2017-06-01T05:13:46.395Z,17.74
2017-06-01T05:16:13.920Z,17.79
2017-06-01T05:18:41.468Z,17.87
2017-06-01T05:21:09.019Z,17.81
2017-06-01T05:23:37.203Z,17.80
2017-06-01T05:26:04.799Z,17.78
2017-06-01T05:28:33.192Z,17.84
2017-06-01T05:31:00.904Z,17.91
2017-06-01T05:33:28.425Z,17.94
2017-06-01T05:35:55.972Z,18.00
2017-06-01T05:38:23.501Z,17.99
2017-06-01T05:40:51.253Z,18.07
2017-06-01T05:43:18.771Z,18.14
2017-06-01T05:45:46.325Z,18.15
2017-06-01T05:48:13.852Z,18.24
2017-06-01T05:50:41.608Z,18.18
2017-06-01T05:53:09.155Z,18.30
2017-06-01T05:55:38.483Z,18.42
2017-06-01T05:58:06.606Z,18.50
2017-06-01T06:00:36.308Z,18.58
2017-06-01T06:03:04.195Z,18.66
2017-06-01T06:05:35.018Z,18.76
2017-06-01T06:08:02.621Z,18.82
2017-06-01T06:10:30.171Z,18.87
2017-06-01T06:12:57.698Z,18.80
2017-06-01T06:15:25.347Z,18.79
2017-06-01T06:17:52.975Z,18.87
2017-06-01T06:20:20.523Z,18.92
2017-06-01T06:22:48.051Z,18.96
2017-06-01T06:25:15.611Z,19.06
2017-06-01T06:27:43.131Z,19.10
2017-06-01T06:30:10.680Z,19.12
2017-06-01T06:32:38.319Z,19.09
2017-06-01T06:35:05.892Z,19.04
2017-06-01T06:37:33.473Z,19.02
2017-06-01T06:40:00.987Z,19.14
2017-06-01T06:42:28.550Z,19.03
2017-06-01T06:44:56.066Z,18.98
2017-06-01T06:47:23.616Z,19.10
2017-06-01T06:49:51.147Z,19.22
2017-06-01T06:52:18.695Z,19.21
2017-06-01T06:54:46.312Z,19.18
2017-06-01T06:57:13.900Z,19.20
2017-06-01T06:59:41.416Z,19.20
2017-06-01T07:02:09.383Z,19.31
2017-06-01T07:04:36.943Z,19.43
2017-06-01T07:07:04.568Z,19.53
2017-06-01T07:09:32.246Z,19.58
2017-06-01T07:11:59.779Z,19.56
2017-06-01T07:14:27.471Z,19.65
2017-06-01T07:16:55.755Z,19.74
2017-06-01T07:19:23.344Z,19.84
2017-06-01T07:21:50.871Z,19.79
2017-06-01T07:24:18.427Z,19.86
2017-06-01T07:26:45.979Z,19.96
2017-06-01T07:29:13.502Z,20.05
2017-06-01T07:31:41.067Z,20.13
2017-06-01T07:34:08.587Z,20.14
2017-06-01T07:36:36.147Z,20.17
2017-06-01T07:39:03.652Z,20.16
2017-06-01T07:41:31.206Z,20.17
2017-06-01T07:43:58.731Z,20.20
2017-06-01T07:46:26.289Z,20.25
2017-06-01T07:48:53.837Z,20.36
2017-06-01T07:51:21.403Z,20.53
2017-06-01T07:53:48.928Z,20.46
2017-06-01T07:56:16.486Z,20.60
2017-06-01T07:58:44.085Z,20.74
2017-06-01T08:01:11.679Z,20.79
2017-06-01T08:03:39.291Z,20.71
2017-06-01T08:06:06.865Z,20.84
2017-06-01T08:08:34.445Z,20.96
2017-06-01T08:11:02.081Z,21.08
2017-06-01T08:13:29.631Z,21.11
2017-06-01T08:15:57.208Z,21.16
2017-06-01T08:18:24.769Z,21.28
2017-06-01T08:20:52.349Z,21.36
2017-06-01T08:23:19.871Z,21.42
2017-06-01T08:25:47.395Z,21.37
2017-06-01T08:28:14.946Z,21.34
2017-06-01T08:30:42.475Z,21.30
2017-06-01T08:33:10.034Z,21.32
2017-06-01T08:35:37.556Z,21.40
2017-06-01T08:38:05.135Z,21.35
2017-06-01T08:40:32.674Z,21.32
2017-06-01T08:43:00.224Z,21.42
2017-06-01T08:45:27.784Z,21.43
2017-06-01T08:47:55.315Z,21.60
2017-06-01T08:50:22.875Z,21.41
2017-06-01T08:52:50.435Z,21.42
2017-06-01T08:55:17.995Z,21.39
2017-06-01T08:57:45.536Z,21.42
2017-06-01T09:00:13.122Z,21.57
2017-06-01T09:02:40.664Z,21.81
2017-06-01T09:05:08.204Z,21.86
2017-06-01T09:07:35.807Z,21.97
2017-06-01T09:10:03.851Z,21.97
2017-06-01T09:12:31.413Z,22.04
2017-06-01T09:14:58.960Z,22.10
2017-06-01T09:17:26.528Z,22.27
2017-06-01T09:19:54.059Z,22.32
2017-06-01T09:22:21.612Z,22.02
2017-06-01T09:24:49.181Z,22.04
2017-06-01T09:27:16.705Z,22.09
2017-06-01T09:29:44.280Z,22.19
2017-06-01T09:32:11.814Z,22.25
2017-06-01T09:34:39.346Z,22.45
2017-06-01T09:37:06.906Z,22.44
2017-06-01T09:39:34.436Z,22.61
2017-06-01T09:42:01.988Z,22.71
2017-06-01T09:44:29.522Z,22.55
2017-06-01T09:46:57.115Z,22.43
2017-06-01T09:49:24.659Z,22.53
2017-06-01T09:51:52.250Z,22.72
2017-06-01T09:54:19.820Z,22.68
2017-06-01T09:56:47.411Z,22.70
2017-06-01T09:59:14.980Z,22.76
2017-06-01T10:01:42.512Z,22.90
2017-06-01T10:04:10.100Z,22.91
2017-06-01T10:06:37.688Z,23.09
2017-06-01T10:09:05.211Z,23.28
2017-06-01T10:11:32.803Z,23.48
2017-06-01T10:14:00.321Z,23.75
2017-06-01T10:16:27.894Z,23.84
2017-06-01T10:18:55.432Z,23.85
2017-06-01T10:21:23.004Z,23.90
2017-06-01T10:23:50.531Z,23.70
2017-06-01T10:26:18.116Z,23.73
2017-06-01T10:28:45.655Z,23.89
2017-06-01T10:31:13.238Z,24.15
2017-06-01T10:33:40.769Z,24.37
2017-06-01T10:36:08.295Z,24.53
2017-06-01T10:38:35.867Z,24.29
2017-06-01T10:41:03.408Z,24.52
2017-06-01T10:43:30.967Z,24.85
2017-06-01T10:45:58.502Z,24.93
2017-06-01T10:48:26.073Z,25.11
2017-06-01T10:50:53.614Z,25.23
2017-06-01T10:53:21.224Z,24.93
2017-06-01T10:55:48.845Z,24.72
2017-06-01T10:58:16.365Z,24.83
2017-06-01T11:00:43.965Z,25.26
2017-06-01T11:03:11.535Z,25.25
2017-06-01T11:05:39.101Z,25.47
2017-06-01T11:08:06.635Z,25.80
2017-06-01T11:10:34.192Z,25.88
2017-06-01T11:13:01.751Z,25.69
2017-06-01T11:15:29.382Z,25.77
2017-06-01T11:17:56.930Z,25.91
2017-06-01T11:20:24.574Z,25.92
2017-06-01T11:22:52.159Z,26.04
2017-06-01T11:25:19.709Z,25.81
2017-06-01T11:27:47.235Z,25.47
2017-06-01T11:30:14.921Z,24.99
2017-06-01T11:32:42.460Z,25.23
2017-06-01T11:35:10.426Z,24.84
2017-06-01T11:37:38.011Z,25.14
2017-06-01T11:40:05.546Z,25.51
2017-06-01T11:42:33.120Z,25.53
2017-06-01T11:45:00.649Z,25.87
2017-06-01T11:47:28.183Z,26.08
2017-06-01T11:49:55.731Z,25.95
2017-06-01T11:52:23.272Z,26.17
2017-06-01T11:54:50.839Z,26.27
2017-06-01T11:57:18.375Z,26.21
2017-06-01T11:59:46.007Z,26.08
2017-06-01T12:02:13.583Z,26.34
2017-06-01T12:04:41.107Z,26.41
2017-06-01T12:07:08.668Z,25.97
2017-06-01T12:09:36.239Z,26.23
2017-06-01T12:12:03.800Z,26.69
2017-06-01T12:14:31.315Z,26.94
2017-06-01T12:16:58.888Z,26.51
2017-06-01T12:19:26.544Z,26.54
2017-06-01T12:21:54.084Z,26.67
2017-06-01T12:24:21.630Z,26.16
2017-06-01T12:26:49.163Z,26.56
2017-06-01T12:29:16.719Z,26.70
2017-06-01T12:31:44.265Z,26.76
2017-06-01T12:34:11.820Z,27.05
2017-06-01T12:36:39.340Z,26.75
2017-06-01T12:39:07.235Z,27.12
2017-06-01T12:41:34.756Z,27.40
2017-06-01T12:44:02.303Z,27.37
2017-06-01T12:46:29.875Z,27.51
2017-06-01T12:48:57.439Z,26.67
2017-06-01T12:51:25.007Z,26.99
2017-06-01T12:53:52.526Z,27.08
2017-06-01T12:56:20.081Z,26.89
2017-06-01T12:58:47.610Z,26.42
2017-06-01T13:01:15.184Z,26.82
2017-06-01T13:03:42.708Z,26.98
2017-06-01T13:06:10.224Z,27.08
2017-06-01T13:08:37.815Z,26.98
2017-06-01T13:11:05.332Z,26.87
2017-06-01T13:13:32.903Z,26.95
2017-06-01T13:16:00.436Z,26.84
2017-06-01T13:18:28.143Z,26.99
2017-06-01T13:20:55.672Z,26.55
2017-06-01T13:23:23.219Z,26.78
2017-06-01T13:25:50.800Z,27.37
2017-06-01T13:28:18.336Z,27.64
2017-06-01T13:30:45.858Z,27.47
2017-06-01T13:33:13.431Z,27.48
2017-06-01T13:35:41.005Z,28.06
2017-06-01T13:38:08.627Z,27.90
2017-06-01T13:40:36.155Z,27.71
2017-06-01T13:43:03.719Z,27.23
2017-06-01T13:45:31.263Z,27.16
2017-06-01T13:47:59.180Z,26.81
2017-06-01T13:50:26.711Z,26.98
2017-06-01T13:52:54.231Z,27.29
2017-06-01T13:55:21.793Z,27.77
2017-06-01T13:57:49.367Z,28.15
2017-06-01T14:00:16.916Z,28.62
2017-06-01T14:02:44.441Z,28.73
2017-06-01T14:05:11.999Z,28.60
2017-06-01T14:07:39.516Z,28.84
2017-06-01T14:10:07.076Z,28.38
2017-06-01T14:12:34.615Z,28.05
2017-06-01T14:15:02.271Z,27.76
2017-06-01T14:17:29.800Z,28.18
2017-06-01T14:19:57.348Z,28.28
2017-06-01T14:22:24.935Z,28.21
2017-06-01T14:24:52.474Z,28.54
2017-06-01T14:27:20.080Z,29.02
2017-06-01T14:29:47.612Z,28.60
2017-06-01T14:32:15.175Z,28.24
2017-06-01T14:34:42.737Z,28.17
2017-06-01T14:37:10.341Z,28.06
2017-06-01T14:39:37.876Z,27.81
2017-06-01T14:42:05.431Z,28.29
2017-06-01T14:44:32.956Z,28.17
2017-06-01T14:47:00.553Z,28.20
2017-06-01T14:49:28.059Z,28.47
2017-06-01T14:51:55.563Z,28.85
2017-06-01T14:54:23.140Z,28.99
2017-06-01T14:56:50.655Z,29.24
2017-06-01T14:59:18.212Z,29.36
2017-06-01T15:01:45.746Z,29.44
2017-06-01T15:04:13.298Z,29.31
2017-06-01T15:06:40.816Z,29.43
2017-06-01T15:09:08.343Z,28.94
2017-06-01T15:11:35.957Z,29.01
2017-06-01T15:14:03.491Z,29.39
2017-06-01T15:16:31.023Z,29.42
2017-06-01T15:18:58.588Z,29.38
2017-06-01T15:21:26.104Z,29.30
2017-06-01T15:23:53.675Z,29.47
2017-06-01T15:26:21.205Z,29.64
2017-06-01T15:28:48.714Z,29.84
2017-06-01T15:31:16.275Z,29.55
2017-06-01T15:33:43.787Z,29.30
2017-06-01T15:36:11.362Z,29.50
2017-06-01T15:38:38.960Z,29.60
2017-06-01T15:41:06.651Z,29.66
2017-06-01T15:43:34.202Z,29.65
2017-06-01T15:46:01.829Z,29.72
2017-06-01T15:48:29.412Z,29.22
2017-06-01T15:50:57.055Z,29.65
2017-06-01T15:53:24.580Z,29.56
2017-06-01T15:55:52.298Z,29.87
2017-06-01T15:58:19.829Z,29.89
2017-06-01T16:00:47.352Z,29.33
2017-06-01T16:03:14.915Z,29.46
2017-06-01T16:05:42.464Z,29.69
2017-06-01T16:08:10.136Z,29.27
2017-06-01T16:10:37.673Z,29.22
2017-06-01T16:13:05.183Z,29.10
2017-06-01T16:15:32.855Z,29.20
2017-06-01T16:18:00.386Z,29.25
2017-06-01T16:20:28.016Z,29.54
2017-06-01T16:22:55.591Z,29.54
2017-06-01T16:25:23.125Z,29.45
2017-06-01T16:27:50.785Z,29.44
2017-06-01T16:30:18.319Z,29.24
2017-06-01T16:32:45.863Z,29.25
2017-06-01T16:35:13.509Z,29.09
2017-06-01T16:37:41.035Z,29.29
2017-06-01T16:40:08.731Z,29.26
2017-06-01T16:42:36.251Z,29.06
2017-06-01T16:45:03.763Z,28.94
2017-06-01T16:47:31.344Z,28.85
2017-06-01T16:49:58.868Z,29.31
2017-06-01T16:52:26.446Z,28.85
2017-06-01T16:54:53.970Z,28.82
2017-06-01T16:57:21.505Z,28.75
2017-06-01T16:59:49.056Z,28.89
2017-06-01T17:02:16.593Z,29.01
2017-06-01T17:04:44.155Z,29.01
2017-06-01T17:07:11.701Z,29.02
2017-06-01T17:09:39.312Z,28.92
2017-06-01T17:12:06.883Z,28.43
2017-06-01T17:14:34.395Z,28.49
2017-06-01T17:17:01.970Z,28.53
2017-06-01T17:19:29.501Z,28.59
2017-06-01T17:21:57.029Z,28.53
2017-06-01T17:24:24.603Z,28.30
2017-06-01T17:26:52.135Z,28.23
2017-06-01T17:29:19.704Z,28.08
2017-06-01T17:31:47.224Z,28.01
2017-06-01T17:34:15.136Z,27.74
2017-06-01T17:36:42.677Z,27.83
2017-06-01T17:39:10.530Z,28.01
2017-06-01T17:41:38.428Z,27.97
2017-06-01T17:44:06.001Z,27.97
2017-06-01T17:46:33.619Z,28.04
2017-06-01T17:49:01.236Z,27.85
2017-06-01T17:51:28.836Z,27.71
2017-06-01T17:53:56.520Z,27.90
2017-06-01T17:56:24.239Z,27.68
2017-06-01T17:58:51.800Z,28.05
2017-06-01T18:01:19.336Z,27.93
2017-06-01T18:03:47.068Z,27.69
2017-06-01T18:06:14.600Z,27.88
2017-06-01T18:08:42.428Z,27.84
2017-06-01T18:11:10.016Z,27.76
2017-06-01T18:13:37.580Z,27.77
2017-06-01T18:16:07.067Z,27.80
2017-06-01T18:18:34.701Z,27.92
2017-06-01T18:21:02.307Z,27.85
2017-06-01T18:23:29.839Z,27.80
2017-06-01T18:25:57.375Z,27.74
2017-06-01T18:28:25.028Z,27.35
2017-06-01T18:30:52.546Z,27.36
2017-06-01T18:33:20.122Z,27.40
2017-06-01T18:35:47.656Z,27.54
2017-06-01T18:38:15.662Z,27.36
2017-06-01T18:40:43.256Z,27.37
2017-06-01T18:43:10.781Z,26.92
2017-06-01T18:45:38.361Z,27.06
2017-06-01T18:48:05.895Z,27.00
2017-06-01T18:50:33.831Z,26.93
2017-06-01T18:53:01.420Z,26.75
2017-06-01T18:55:29.015Z,26.75
2017-06-01T18:57:56.573Z,26.74
2017-06-01T19:00:24.107Z,26.61
2017-06-01T19:02:51.672Z,26.35
2017-06-01T19:05:19.312Z,26.44
2017-06-01T19:07:47.051Z,26.35
2017-06-01T19:10:14.585Z,26.25
2017-06-01T19:12:42.110Z,26.29
2017-06-01T19:15:09.699Z,26.13
2017-06-01T19:17:37.240Z,26.20
2017-06-01T19:20:04.856Z,26.09
2017-06-01T19:22:32.388Z,25.87
2017-06-01T19:25:00.128Z,25.74
2017-06-01T19:27:27.663Z,25.82
2017-06-01T19:29:55.247Z,25.63
2017-06-01T19:32:22.820Z,25.52
2017-06-01T19:34:50.362Z,25.54
2017-06-01T19:37:18.073Z,25.42
2017-06-01T19:39:45.598Z,25.30
2017-06-01T19:42:13.137Z,25.27
2017-06-01T19:44:40.795Z,25.19
2017-06-01T19:47:08.333Z,25.18
2017-06-01T19:49:35.924Z,25.16
2017-06-01T19:52:03.496Z,25.10
2017-06-01T19:54:31.027Z,25.03
2017-06-01T19:56:58.627Z,24.95
2017-06-01T19:59:26.257Z,24.97
2017-06-01T20:01:54.169Z,24.79
2017-06-01T20:04:21.740Z,24.86
2017-06-01T20:06:50.067Z,24.80
2017-06-01T20:09:17.744Z,24.71
2017-06-01T20:11:45.282Z,24.60
2017-06-01T20:14:13.034Z,24.55
2017-06-01T20:16:40.596Z,24.41
2017-06-01T20:19:08.161Z,24.33
2017-06-01T20:21:35.876Z,24.34
2017-06-01T20:24:03.738Z,24.22
2017-06-01T20:26:31.540Z,24.13
2017-06-01T20:28:59.190Z,23.95
2017-06-01T20:31:26.885Z,23.94
2017-06-01T20:33:54.659Z,24.07
2017-06-01T20:36:22.543Z,24.02
2017-06-01T20:38:50.385Z,23.87
2017-06-01T20:41:18.626Z,23.74
2017-06-01T20:43:46.309Z,23.69
2017-06-01T20:46:13.888Z,23.55
2017-06-01T20:48:41.945Z,23.46
2017-06-01T20:51:09.520Z,23.52
2017-06-01T20:53:38.100Z,23.63
2017-06-01T20:56:05.722Z,23.88
2017-06-01T20:58:33.451Z,23.66
2017-06-01T21:01:01.184Z,23.53
2017-06-01T21:03:28.713Z,23.43
2017-06-01T21:05:56.275Z,23.31
2017-06-01T21:08:23.899Z,23.29
2017-06-01T21:10:51.430Z,23.29
2017-06-01T21:13:18.986Z,23.29
2017-06-01T21:15:46.532Z,23.20
2017-06-01T21:18:14.122Z,23.00
2017-06-01T21:20:41.657Z,22.92
2017-06-01T21:23:09.328Z,22.83
2017-06-01T21:25:36.862Z,22.81
2017-06-01T21:28:04.387Z,22.91
2017-06-01T21:30:32.003Z,22.88
2017-06-01T21:32:59.541Z,22.88
2017-06-01T21:35:27.225Z,22.83
2017-06-01T21:37:54.760Z,22.80
2017-06-01T21:40:22.312Z,22.68
2017-06-01T21:42:49.875Z,22.61
2017-06-01T21:45:17.405Z,22.84
2017-06-01T21:47:45.140Z,22.55
2017-06-01T21:50:13.029Z,22.45
2017-06-01T21:52:40.570Z,22.40
2017-06-01T21:55:08.146Z,22.36
2017-06-01T21:57:35.703Z,22.23
2017-06-01T22:00:03.323Z,22.17
2017-06-01T22:02:30.996Z,22.16
2017-06-01T22:04:58.823Z,22.06
2017-06-01T22:07:26.408Z,22.08
2017-06-01T22:09:53.952Z,22.11
2017-06-01T22:12:21.577Z,21.93
2017-06-01T22:14:49.215Z,21.85
2017-06-01T22:17:16.781Z,21.80
2017-06-01T22:19:44.315Z,21.83
2017-06-01T22:22:11.992Z,21.82
2017-06-01T22:24:39.522Z,21.76
2017-06-01T22:27:07.046Z,21.72
2017-06-01T22:29:34.675Z,21.81
2017-06-01T22:32:02.228Z,21.82
2017-06-01T22:34:29.891Z,21.73
2017-06-01T22:36:57.431Z,21.55
2017-06-01T22:39:24.966Z,21.46
2017-06-01T22:41:52.523Z,21.48
2017-06-01T22:44:20.081Z,21.48
2017-06-01T22:46:47.668Z,21.58
2017-06-01T22:49:15.332Z,21.51
2017-06-01T22:51:43.012Z,21.55
2017-06-01T22:54:10.527Z,21.44
2017-06-01T22:56:38.346Z,21.30
2017-06-01T22:59:05.864Z,21.21
2017-06-01T23:01:33.423Z,21.27
2017-06-01T23:04:01.019Z,21.14
2017-06-01T23:06:28.559Z,21.04
2017-06-01T23:08:56.344Z,21.09
2017-06-01T23:11:23.906Z,21.01
2017-06-01T23:13:51.416Z,21.03
2017-06-01T23:16:18.987Z,21.00
2017-06-01T23:18:46.532Z,21.04
2017-06-01T23:21:14.171Z,21.01
2017-06-01T23:23:41.718Z,20.98
2017-06-01T23:26:09.283Z,20.83
2017-06-01T23:28:36.812Z,20.83
2017-06-01T23:31:04.378Z,20.80
2017-06-01T23:33:31.896Z,20.76
2017-06-01T23:35:59.455Z,20.80
2017-06-01T23:38:27.000Z,20.96
2017-06-01T23:40:54.604Z,20.75
2017-06-01T23:43:22.143Z,20.72
2017-06-01T23:45:49.753Z,20.72
2017-06-01T23:48:17.382Z,20.85
2017-06-01T23:50:44.907Z,20.70
2017-06-01T23:53:12.487Z,20.64
2017-06-01T23:55:40.010Z,20.62
2017-06-01T23:58:07.595Z,20.59
